M I D A S
Marine Information and Data Acquisition System
Tripno 557 of the Zeeleeuw from 2003-08-27 06:17:15 to 2003-08-27 12:06:54
Back to CruiseResearch ActivitiesStationsMapUnderway DataData graphs

EquipmentUnitsComment
TimeDGPSUTC
LatitudeDGPSDM.mWGS84
LongitudeDGPSDM.mWGS84
TemperatureSBE03/SBE38deg celciusITS90
ConductivitySBE21S/mITS90
SalinitySBE21 Practical Salinity Units
ChlorophylAChelsea fluorimeterg/lCalibrated in Aceton
Missing or incorrect values are displayed as -999
Sea surface data collected by the RV Zeeleeuw from 2003-08-27 06:17:15 to 2003-08-27 12:06:54
Time Latitude Longitude Temperature Conductivity Salinity ChlorophylA
2003-08-27 06:18:17 51°13.6 2°56.11 46.679764 0.448862 2.36535 -0.612702
2003-08-27 06:19:21 51°13.59 2°56.11 47.196591 0.471497 2.492651 -0.646411
2003-08-27 06:20:21 51°13.6 2°56.11 46.023936 0.453243 2.390365 -0.612702
2003-08-27 06:21:21 51°13.6 2°56.11 45.335666 0.461796 2.438625 -0.612702
2003-08-27 06:22:21 51°13.6 2°56.11 45.720205 0.445734 2.348786 -0.612702
2003-08-27 06:23:21 51°13.6 2°56.11 44.945921 0.476817 2.523574 -0.612702
2003-08-27 06:24:21 51°13.6 2°56.11 45.87778 0.469202 2.481005 -0.612702
2003-08-27 06:25:25 51°13.6 2°56.1 45.42345 0.436556 2.298043 -0.612702
2003-08-27 06:26:25 51°13.62 2°56.01 46.209914 0.495492 2.629728 -0.680121
2003-08-27 06:27:25 51°13.65 2°55.88 45.314799 0.418723 2.198964 -0.680121
2003-08-27 06:28:29 51°13.68 2°55.82 45.100176 0.537334 2.867693 -0.646411
2003-08-27 06:29:35 51°13.68 2°55.78 46.243769 0.525751 2.801986 -0.646411
2003-08-27 06:30:33 51°13.68 2°55.76 43.709823 0.557686 2.984124 -0.612702
2003-08-27 06:31:33 51°13.71 2°55.77 41.807141 0.691859 3.757415 -0.646411
2003-08-27 06:32:37 51°13.77 2°55.7 41.249681 0.503213 2.674728 -0.646411
2003-08-27 06:33:49 51°13.9 2°55.58 39.769598 0.494135 2.624025 -0.646411
2003-08-27 06:34:49 51°14.01 2°55.5 42.061789 0.53243 2.841408 -0.646411
2003-08-27 06:35:49 51°14.13 2°55.42 41.676188 0.55445 2.967048 -0.646411
2003-08-27 06:36:53 51°14.25 2°55.29 38.379803 0.636924 3.440755 -0.646411
2003-08-27 06:38:03 51°14.37 2°55.07 40.716792 0.367115 1.914554 -0.612702
2003-08-27 06:39:07 51°14.48 2°54.85 43.185716 0.739079 4.035681 -0.612702
2003-08-27 06:40:07 51°14.61 2°54.67 40.703608 0.526899 2.810683 -0.646411
2003-08-27 06:41:09 51°14.78 2°54.51 39.75355 0.530447 2.832972 -0.646411
2003-08-27 06:42:13 51°14.97 2°54.37 40.287584 0.581485 3.124599 -0.612702
2003-08-27 06:43:13 51°15.14 2°54.22 36.917477 0.534413 2.856513 -0.646411
2003-08-27 06:44:17 51°15.32 2°54.05 38.891995 0.471915 2.503061 -0.612702
2003-08-27 06:45:21 51°15.51 2°53.88 40.950751 0.653632 3.544263 -0.612702
2003-08-27 06:46:25 51°15.69 2°53.69 42.821796 0.413926 2.178879 -0.612702
2003-08-27 06:47:25 51°15.87 2°53.53 41.037958 0.580232 3.122981 -0.612702
2003-08-27 06:48:31 51°16.06 2°53.34 41.947687 0.485998 2.590223 -0.646411
2003-08-27 06:49:33 51°16.23 2°53.16 40.582395 0.771053 4.241861 -0.646411
2003-08-27 06:50:39 51°16.43 2°52.98 38.185451 0.558313 3.005045 -0.612702
2003-08-27 06:51:37 51°16.61 2°52.82 39.787232 0.659586 3.593603 -0.646411
2003-08-27 06:52:37 51°16.79 2°52.66 38.310894 0.770322 4.244258 -0.578993
2003-08-27 06:53:49 51°17.01 2°52.54 40.370303 0.732601 4.017901 -0.612702
2003-08-27 06:54:49 51°17.21 2°52.44 39.665149 1.42602 8.264784 -0.612702
2003-08-27 06:55:53 51°17.41 2°52.38 38.451123 1.063241 6.018853 -0.646411
2003-08-27 06:56:53 51°17.61 2°52.32 36.900237 1.094638 6.212962 -0.612702
2003-08-27 06:57:53 51°17.8 2°52.25 38.031898 0.924207 5.177862 -0.612702
2003-08-27 06:58:57 51°18.01 2°52.21 37.564348 0.643921 3.517091 -0.612702
2003-08-27 06:59:55 51°18.2 2°52.22 37.517167 0.949413 5.33004 -0.646411
2003-08-27 07:01:09 51°18.39 2°52.42 37.128768 0.66063 3.615353 -0.612702
2003-08-27 07:02:21 51°18.49 2°52.74 37.311848 0.876315 4.892223 -0.612702
2003-08-27 07:03:21 51°18.56 2°53.02 37.972313 0.689144 3.781995 -0.612702
2003-08-27 07:04:33 51°18.65 2°53.37 40.190989 0.631704 3.446621 -0.646411
2003-08-27 07:05:37 51°18.71 2°53.67 38.37508 0.480574 2.574557 -0.612702
2003-08-27 07:06:57 51°18.8 2°54.05 40.385673 0.429778 2.286108 -0.612702
2003-08-27 07:08:01 51°18.87 2°54.36 38.330624 0.563532 3.05111 -0.612702
2003-08-27 07:09:05 51°18.94 2°54.67 39.5705 0.778474 4.310377 -0.646411
2003-08-27 07:10:09 51°19.02 2°54.98 39.666834 0.578876 3.139905 -0.646411
2003-08-27 07:11:17 51°19.1 2°55.31 39.069918 0.740647 4.086724 -0.646411
2003-08-27 07:12:17 51°19.17 2°55.61 39.019868 0.434888 2.315526 -0.646411
2003-08-27 07:13:19 51°19.24 2°55.91 39.771904 0.502796 2.70374 -0.612702
2003-08-27 07:14:27 51°19.32 2°56.25 39.782466 0.407983 2.164312 -0.646411
2003-08-27 07:15:42 51°19.4 2°56.63 40.02734 0.567394 3.074562 -0.612702
2003-08-27 07:16:50 51°19.47 2°56.97 40.161163 0.773667 4.283209 -0.612702
2003-08-27 07:18:00 51°19.56 2°57.31 40.370055 0.291874 1.518221 -0.612702
2003-08-27 07:19:12 51°19.65 2°57.65 40.199513 0.920756 5.16435 -0.646411
2003-08-27 07:20:26 51°19.73 2°58 41.333575 0.506031 2.722732 -0.646411
2003-08-27 07:21:34 51°19.82 2°58.33 41.044431 0.491215 2.639154 -0.612702
2003-08-27 07:22:50 51°19.91 2°58.69 39.916037 0.373474 1.971949 -0.612702
2003-08-27 07:24:02 51°19.99 2°59.03 39.274352 0.49831 2.678751 -0.646411
2003-08-27 07:25:10 51°20.07 2°59.35 40.126208 0.495493 2.663586 -0.646411
2003-08-27 07:26:24 51°20.16 2°59.69 40.308419 0.495493 2.663091 -0.612702
2003-08-27 07:27:38 51°20.24 3°0.05 40.864467 0.77398 4.289687 -0.646411
2003-08-27 07:28:56 51°20.33 3°0.41 41.883791 0.508326 2.737768 -0.680121
2003-08-27 07:30:06 51°20.41 3°0.75 42.423461 0.470142 2.519499 -0.680121
2003-08-27 07:31:10 51°20.49 3°1.05 42.009897 0.635985 3.479012 -0.612702
2003-08-27 07:32:18 51°20.57 3°1.38 42.316201 0.81589 4.543194 -0.680121
2003-08-27 07:33:18 51°20.63 3°1.67 39.988226 0.422791 2.251667 -0.612702
2003-08-27 07:34:38 51°20.73 3°2.06 41.924836 0.409235 2.17546 -0.646411
2003-08-27 07:35:52 51°20.82 3°2.42 42.930386 0.457416 2.448716 -0.612702
2003-08-27 07:37:06 51°20.9 3°2.78 43.247814 0.498727 2.687026 -0.646411
2003-08-27 07:38:14 51°20.98 3°3.11 44.691727 0.403187 2.143591 -0.646411
2003-08-27 07:39:18 51°21.06 3°3.42 42.323903 0.637447 3.492324 -0.646411
2003-08-27 07:40:34 51°21.15 3°3.79 43.018349 0.549755 2.982089 -0.680121
2003-08-27 07:41:46 51°21.23 3°4.14 42.562968 0.635254 3.480089 -0.646411
2003-08-27 07:43:02 51°21.32 3°4.51 41.789844 0.884785 4.969714 -0.680121
2003-08-27 07:44:06 51°21.39 3°4.82 43.105082 0.402666 2.142646 -0.680121
2003-08-27 07:45:14 51°21.47 3°5.15 40.803786 0.672955 3.703446 -0.680121
2003-08-27 07:46:34 51°21.55 3°5.55 42.212158 0.729259 4.035685 -0.646411
2003-08-27 07:47:54 51°21.62 3°5.96 42.195975 0.527944 2.859765 -0.646411
2003-08-27 07:49:06 51°21.68 3°6.33 42.467075 0.490068 2.641674 -0.646411
2003-08-27 07:50:06 51°21.74 3°6.64 43.213274 0.507179 2.740337 -0.680121
2003-08-27 07:51:10 51°21.8 3°6.97 43.421161 0.598711 3.27018 -0.646411
2003-08-27 07:52:14 51°21.86 3°7.3 43.619879 0.822162 4.592835 -0.680121
2003-08-27 07:53:18 51°21.92 3°7.63 42.904564 0.618757 3.389232 -0.680121
2003-08-27 07:54:26 51°21.98 3°7.98 42.473226 0.558627 3.037537 -0.646411
2003-08-27 07:55:34 51°22.04 3°8.33 38.146836 0.481304 2.593332 -0.646411
2003-08-27 07:56:44 51°22.08 3°8.7 43.08117 0.516674 2.797348 -0.646411
2003-08-27 07:57:54 51°22.11 3°9.08 43.278098 0.663033 3.650663 -0.646411
2003-08-27 07:59:10 51°22.14 3°9.49 42.943909 0.341787 1.804537 -0.680121
2003-08-27 08:00:18 51°22.19 3°9.85 40.359229 0.392865 2.091129 -0.680121
2003-08-27 08:01:26 51°22.26 3°10.2 40.912598 0.539423 2.930004 -0.680121
2003-08-27 08:02:32 51°22.35 3°10.53 39.536821 0.501231 2.710385 -0.646411
2003-08-27 08:03:32 51°22.43 3°10.83 38.847225 0.53264 2.889916 -0.646411
2003-08-27 08:04:32 51°22.5 3°11.13 39.085347 0.484226 2.612755 -0.646411
2003-08-27 08:05:50 51°22.57 3°11.54 38.412983 0.841083 4.716286 -0.646411
2003-08-27 08:07:08 51°22.64 3°11.95 36.371316 0.566664 3.090492 -0.646411
2003-08-27 08:08:18 51°22.68 3°12.32 39.07856 0.482243 2.6019 -0.646411
2003-08-27 08:09:30 51°22.73 3°12.71 38.355836 0.286145 1.496524 -0.646411
2003-08-27 08:10:34 51°22.76 3°13.06 37.425224 0.528674 2.871796 -0.646411
2003-08-27 08:11:44 51°22.8 3°13.44 38.79092 0.452306 2.432612 -0.646411
2003-08-27 08:13:02 51°22.84 3°13.87 38.920873 0.416013 2.224535 -0.646411
2003-08-27 08:14:02 51°22.87 3°14.2 38.985017 0.403917 2.1573 -0.680121
2003-08-27 08:15:10 51°23.05 3°14.31 39.582243 0.387652 2.065895 -0.646411
2003-08-27 08:16:18 51°23.28 3°14.33 38.967459 0.558314 3.04555 -0.680121
2003-08-27 08:17:24 51°23.51 3°14.35 38.789722 0.608212 3.334844 -0.680121
2003-08-27 08:18:38 51°23.77 3°14.38 38.790478 0.668151 3.691037 -0.646411
2003-08-27 08:19:50 51°24.03 3°14.41 39.099329 0.6174 3.392205 -0.646411
2003-08-27 08:21:10 51°24.31 3°14.45 38.793128 0.544433 2.965178 -0.680121
2003-08-27 08:22:12 51°24.53 3°14.41 39.928571 0.462736 2.494034 -0.646411
2003-08-27 08:23:10 51°24.65 3°14.14 39.906115 0.624917 3.434356 -0.612702
2003-08-27 08:24:22 51°24.61 3°13.71 38.682613 1.102803 6.322872 -0.680121
2003-08-27 08:25:38 51°24.56 3°13.25 39.374012 0.650606 3.58688 -0.646411
2003-08-27 08:26:54 51°24.51 3°12.78 38.393463 1.162157 6.686296 -0.680121
2003-08-27 08:28:20 51°24.45 3°12.25 38.964848 1.288556 7.491545 -0.680121
2003-08-27 08:29:30 51°24.4 3°11.82 37.491435 1.328992 7.737738 -0.646411
2003-08-27 08:30:38 51°24.36 3°11.4 38.880498 0.603305 3.314224 -0.680121
2003-08-27 08:31:42 51°24.32 3°11.01 39.216429 0.606646 3.336293 -0.680121
2003-08-27 08:32:44 51°24.29 3°10.63 39.433606 0.931007 5.280828 -0.646411
2003-08-27 08:33:50 51°24.26 3°10.22 39.608847 0.650606 3.593649 -0.680121
2003-08-27 08:34:58 51°24.23 3°9.81 39.787139 1.004438 5.727944 -0.680121
2003-08-27 08:36:06 51°24.2 3°9.4 39.53079 0.855929 4.829637 -0.680121
2003-08-27 08:37:24 51°24.17 3°8.93 39.620897 1.096315 6.301306 -0.646411
2003-08-27 08:38:34 51°24.14 3°8.51 38.022315 1.65679 9.843468 -0.646411
2003-08-27 08:39:52 51°24.11 3°8.04 37.759853 0.76186 4.263203 -0.680121
2003-08-27 08:41:02 51°24.09 3°7.62 40.585634 0.585245 3.215418 -0.646411
2003-08-27 08:42:22 51°24.07 3°7.14 37.208895 0.885622 5.007945 -0.646411
2003-08-27 08:43:22 51°24.07 3°6.78 38.10798 1.324802 7.733465 -0.646411
2003-08-27 08:44:38 51°24.06 3°6.32 38.751552 0.370035 1.975387 -0.71383
2003-08-27 08:45:50 51°24.05 3°5.89 37.978652 1.127821 6.498918 -0.680121
2003-08-27 08:47:12 51°24.16 3°5.45 37.893041 0.559775 3.065897 -0.646411
2003-08-27 08:48:24 51°24.28 3°5.06 37.991617 0.657394 3.644069 -0.646411
2003-08-27 08:49:40 51°24.39 3°4.66 37.350257 0.500397 2.722315 -0.680121
2003-08-27 08:50:56 51°24.5 3°4.24 37.80057 1.004229 5.739461 -0.680121
2003-08-27 08:52:04 51°24.59 3°3.86 37.572833 0.965314 5.500046 -0.680121
2003-08-27 08:53:22 51°24.7 3°3.44 37.594378 0.616669 3.404146 -0.646411
2003-08-27 08:54:22 51°24.78 3°3.11 38.056026 1.651756 9.833168 -0.680121
2003-08-27 08:55:24 51°24.9 3°2.8 38.48285 1.720254 10.273576 -0.680121
2003-08-27 08:56:44 51°25.08 3°2.44 38.414884 1.71291 10.226246 -0.680121
2003-08-27 08:58:00 51°25.24 3°2.09 39.040967 0.574075 3.154471 -0.680121
2003-08-27 08:59:26 51°25.43 3°1.69 40.963864 0.433324 2.338024 -0.646411
2003-08-27 09:00:26 51°25.56 3°1.42 37.046755 0.358047 1.909487 -0.646411
2003-08-27 09:02:00 51°25.76 3°0.99 37.717294 1.345232 7.873214 -0.646411
2003-08-27 09:03:10 51°25.92 3°0.68 37.628908 0.438226 2.366309 -0.646411
2003-08-27 09:04:18 51°26.12 3°0.48 37.560121 0.395264 2.120703 -0.646411
2003-08-27 09:05:22 51°26.33 3°0.36 37.718892 1.196396 6.936745 -0.646411
2003-08-27 09:06:30 51°26.55 3°0.27 37.548944 0.677133 3.762956 -0.646411
2003-08-27 09:07:34 51°26.76 3°0.21 37.79527 0.623352 3.445272 -0.680121
2003-08-27 09:08:50 51°27 3°0.21 36.958722 0.329073 1.746719 -0.680121
2003-08-27 09:09:50 51°27.19 3°0.23 37.487332 0.436349 2.356292 -0.680121
2003-08-27 09:11:06 51°27.44 3°0.22 37.57866 0.610509 3.370296 -0.680121
2003-08-27 09:12:10 51°27.65 3°0.21 39.50638 0.631705 3.49452 -0.680121
2003-08-27 09:13:18 51°27.87 3°0.19 38.017858 0.542346 2.968828 -0.71383
2003-08-27 09:14:22 51°28.08 3°0.2 37.893551 0.747335 4.182953 -0.680121
2003-08-27 09:15:26 51°28.29 3°0.21 38.236687 0.414241 2.229551 -0.646411
2003-08-27 09:16:30 51°28.5 3°0.22 38.895271 0.532432 2.911184 -0.680121
2003-08-27 09:17:38 51°28.72 3°0.24 40.38892 0.808993 4.554009 -0.680121
2003-08-27 09:18:46 51°28.95 3°0.25 40.399496 0.502588 2.739151 -0.680121
2003-08-27 09:19:56 51°29.18 3°0.27 39.459508 0.33741 1.794375 -0.646411
2003-08-27 09:21:10 51°29.43 3°0.28 39.316819 1.124681 6.493646 -0.680121
2003-08-27 09:22:14 51°29.64 3°0.29 37.774163 1.013855 5.80582 -0.646411
2003-08-27 09:23:22 51°29.87 3°0.31 36.751832 0.566456 3.11177 -0.680121
2003-08-27 09:24:26 51°30.08 3°0.32 37.994483 0.371286 1.985202 -0.646411
2003-08-27 09:25:38 51°30.32 3°0.37 37.951443 0.407984 2.194421 -0.680121
2003-08-27 09:26:50 51°30.56 3°0.41 37.929643 1.034676 5.933502 -0.646411
2003-08-27 09:27:58 51°30.79 3°0.46 38.642087 0.685594 3.815053 -0.680121
2003-08-27 09:29:02 51°31 3°0.5 38.338395 0.360549 1.926114 -0.646411
2003-08-27 09:30:20 51°31.27 3°0.55 40.039515 1.529379 9.056646 -0.646411
2003-08-27 09:31:22 51°31.48 3°0.59 39.181756 0.40006 2.150082 -0.71383
2003-08-27 09:32:46 51°31.76 3°0.64 39.108439 0.441668 2.388218 -0.680121
2003-08-27 09:34:02 51°32.01 3°0.69 39.177331 0.541302 2.964681 -0.680121
2003-08-27 09:35:12 51°32.24 3°0.73 38.657599 0.398287 2.139507 -0.680121
2003-08-27 09:36:26 51°32.49 3°0.78 37.575554 0.52544 2.873098 -0.646411
2003-08-27 09:37:26 51°32.69 3°0.81 36.58341 0.414554 2.233416 -0.680121
2003-08-27 09:38:26 51°32.88 3°0.85 37.705276 0.810666 4.568112 -0.646411
2003-08-27 09:39:30 51°33.1 3°0.89 37.650534 0.54005 2.958793 -0.71383
2003-08-27 09:40:30 51°33.3 3°0.93 39.00971 0.549025 3.010852 -0.646411
2003-08-27 09:41:38 51°33.52 3°0.97 40.094372 0.393387 2.112321 -0.680121
2003-08-27 09:42:50 51°33.76 3°1.01 40.001743 1.113167 6.42266 -0.680121
2003-08-27 09:43:58 51°33.98 3°1.04 39.037226 0.577311 3.177336 -0.646411
2003-08-27 09:45:18 51°34.24 3°1.01 38.910262 0.338453 1.801054 -0.646411
2003-08-27 09:46:26 51°34.44 3°0.84 38.249261 0.476089 2.588739 -0.646411
2003-08-27 09:47:38 51°34.56 3°0.49 36.91144 0.773982 4.347156 -0.680121
2003-08-27 09:48:42 51°34.52 3°0.11 37.358862 0.323759 1.718578 -0.680121
2003-08-27 09:49:46 51°34.4 2°59.75 36.690379 0.466179 2.530381 -0.680121
2003-08-27 09:51:04 51°34.23 2°59.33 36.674806 0.513127 2.802526 -0.680121
2003-08-27 09:52:02 51°34.09 2°59.04 37.350354 2.342212 14.410328 -0.680121
2003-08-27 09:53:06 51°33.94 2°58.71 37.198698 0.616043 3.407157 -0.646411
2003-08-27 09:54:06 51°33.79 2°58.41 38.243355 0.457521 2.48166 -0.646411
2003-08-27 09:55:12 51°33.62 2°58.09 37.783999 0.529927 2.901451 -0.680121
2003-08-27 09:56:18 51°33.44 2°57.77 37.168101 0.704814 3.935414 -0.680121
2003-08-27 09:57:22 51°33.27 2°57.47 38.110524 1.54217 9.14604 -0.680121
2003-08-27 09:58:26 51°33.09 2°57.17 36.627064 0.89221 5.065332 -0.680121
2003-08-27 09:59:32 51°32.9 2°56.87 36.637042 0.922745 5.250531 -0.680121
2003-08-27 10:00:32 51°32.68 2°56.77 38.290714 0.4836 2.631685 -0.680121
2003-08-27 10:01:34 51°32.44 2°56.83 38.72495 0.628051 3.478809 -0.646411
2003-08-27 10:02:42 51°32.17 2°56.88 38.91593 1.611377 9.592009 -0.646411
2003-08-27 10:03:46 51°31.91 2°56.94 38.973029 1.506629 8.917543 -0.646411
2003-08-27 10:04:46 51°31.67 2°57 39.13432 0.774609 4.35437 -0.646411
2003-08-27 10:05:54 51°31.4 2°57.06 38.56363 0.98226 5.618594 -0.680121
2003-08-27 10:07:06 51°31.12 2°57.12 38.166734 0.645385 3.580621 -0.680121
2003-08-27 10:08:22 51°30.84 2°57.01 38.416564 1.46973 8.679769 -0.680121
2003-08-27 10:09:38 51°30.64 2°56.66 38.087304 0.650606 3.612176 -0.646411
2003-08-27 10:10:42 51°30.5 2°56.33 38.95569 0.74953 4.20317 -0.680121
2003-08-27 10:11:46 51°30.36 2°56 38.450806 0.456791 2.476763 -0.646411
2003-08-27 10:12:50 51°30.23 2°55.67 38.048419 0.507805 2.773238 -0.646411
2003-08-27 10:13:54 51°30.11 2°55.32 38.762563 1.071407 6.172423 -0.646411
2003-08-27 10:14:58 51°29.98 2°54.98 37.644104 2.018757 12.252214 -0.680121
2003-08-27 10:16:26 51°29.81 2°54.51 38.323456 0.876212 4.96872 -0.680121
2003-08-27 10:17:24 51°29.75 2°54.18 38.793159 1.702316 10.185967 -0.680121
2003-08-27 10:18:34 51°29.78 2°53.77 39.256732 0.780879 4.392613 -0.646411
2003-08-27 10:19:46 51°29.91 2°53.41 38.155355 1.534621 9.099793 -0.680121
2003-08-27 10:20:50 51°30.07 2°53.17 37.681043 1.709134 10.229687 -0.646411
2003-08-27 10:22:02 51°30.29 2°52.97 36.80632 0.476819 2.594969 -0.680121
2003-08-27 10:23:06 51°30.48 2°52.79 36.734362 0.602053 3.326824 -0.680121
2003-08-27 10:24:10 51°30.67 2°52.62 38.444757 1.241739 7.236705 -0.646411
2003-08-27 10:25:10 51°30.85 2°52.46 38.868621 1.283111 7.501044 -0.680121
2003-08-27 10:26:16 51°30.95 2°52.15 39.537415 0.557584 3.065803 -0.612702
2003-08-27 10:27:22 51°30.88 2°51.78 38.782247 0.861993 4.885698 -0.680121
2003-08-27 10:28:22 51°30.75 2°51.48 37.799389 1.045454 6.012851 -0.646411
2003-08-27 10:29:22 51°30.62 2°51.18 38.324883 0.863247 4.894337 -0.680121
2003-08-27 10:30:26 51°30.49 2°50.85 37.939332 0.985189 5.640096 -0.646411
2003-08-27 10:31:30 51°30.34 2°50.54 39.449593 0.8022 4.523119 -0.646411
2003-08-27 10:32:46 51°30.17 2°50.17 39.734724 0.746918 4.189871 -0.646411
2003-08-27 10:33:54 51°30.02 2°49.84 37.598475 1.307203 7.65113 -0.646411
2003-08-27 10:34:58 51°29.88 2°49.53 36.972659 0.798332 4.499081 -0.680121
2003-08-27 10:36:06 51°29.72 2°49.21 37.274289 1.04378 6.002482 -0.680121
2003-08-27 10:37:18 51°29.57 2°48.86 37.858178 1.185402 6.885731 -0.680121
2003-08-27 10:38:22 51°29.41 2°48.57 38.059781 0.958515 5.476485 -0.680121
2003-08-27 10:39:24 51°29.23 2°48.33 37.029124 1.026934 5.897365 -0.680121
2003-08-27 10:40:34 51°29.02 2°48.1 37.414477 0.584514 3.223611 -0.646411
2003-08-27 10:41:34 51°28.8 2°48.17 37.436289 0.434159 2.348749 -0.680121
2003-08-27 10:42:36 51°28.62 2°48.42 36.720254 0.471082 2.560602 -0.680121
2003-08-27 10:43:38 51°28.47 2°48.71 38.359735 0.809202 4.562338 -0.646411
2003-08-27 10:44:50 51°28.29 2°49.06 37.701856 0.779416 4.385204 -0.680121
2003-08-27 10:45:50 51°28.15 2°49.34 37.242274 0.359611 1.922761 -0.646411
2003-08-27 10:46:56 51°27.98 2°49.65 36.429801 0.983725 5.630828 -0.646411
2003-08-27 10:47:58 51°27.83 2°49.94 38.403129 1.558736 9.256557 -0.680121
2003-08-27 10:49:08 51°27.64 2°50.24 38.715733 1.240797 7.235237 -0.680121
2003-08-27 10:50:14 51°27.4 2°50.33 37.430997 0.791644 4.462203 -0.680121
2003-08-27 10:51:18 51°27.21 2°50.12 38.53358 0.883531 5.018086 -0.680121
2003-08-27 10:52:18 51°27.08 2°49.83 37.238994 0.978494 5.599446 -0.646411
2003-08-27 10:53:22 51°26.95 2°49.52 38.580453 1.76453 10.591515 -0.680121
2003-08-27 10:54:30 51°26.82 2°49.17 37.403056 1.389554 8.172297 -0.680121
2003-08-27 10:55:30 51°26.71 2°48.87 38.278147 1.039281 5.976377 -0.680121
2003-08-27 10:56:38 51°26.58 2°48.52 37.253429 2.343474 14.435415 -0.680121
2003-08-27 10:57:42 51°26.46 2°48.2 38.529784 0.392657 2.111358 -0.646411
2003-08-27 10:58:46 51°26.34 2°47.88 39.623707 1.189904 6.911725 -0.680121
2003-08-27 10:59:54 51°26.22 2°47.54 37.54257 0.579504 3.194548 -0.646411
2003-08-27 11:01:06 51°26.09 2°47.18 38.638454 2.011197 12.213734 -0.680121
2003-08-27 11:02:06 51°25.98 2°46.89 38.715828 1.949881 11.809014 -0.680121
2003-08-27 11:03:06 51°25.87 2°46.59 39.31801 1.701686 10.180078 -0.646411
2003-08-27 11:04:06 51°25.76 2°46.3 38.344388 1.218072 7.089335 -0.646411
2003-08-27 11:05:16 51°25.63 2°45.96 36.286925 1.219014 7.098074 -0.680121
2003-08-27 11:06:30 51°25.39 2°45.82 38.014291 1.033526 5.939964 -0.646411
2003-08-27 11:08:02 51°25.05 2°45.84 38.706862 0.668256 3.720148 -0.646411
2003-08-27 11:09:10 51°24.8 2°45.81 39.349962 1.160798 6.731453 -0.646411
2003-08-27 11:10:18 51°24.55 2°45.79 39.912056 0.448447 2.431841 -0.680121
2003-08-27 11:11:22 51°24.32 2°45.77 38.96554 0.913229 5.200584 -0.680121
2003-08-27 11:12:30 51°24.07 2°45.75 38.999519 0.661781 3.682584 -0.680121
2003-08-27 11:13:52 51°23.77 2°45.72 38.198541 1.100188 6.351751 -0.646411
2003-08-27 11:15:06 51°23.51 2°45.69 38.322282 1.009356 5.790475 -0.680121
2003-08-27 11:16:18 51°23.25 2°45.66 37.492652 0.874226 4.961347 -0.680121
2003-08-27 11:17:26 51°23 2°45.63 39.570937 1.036351 5.958412 -0.646411
2003-08-27 11:18:52 51°22.69 2°45.59 36.897137 0.911242 5.187894 -0.680121
2003-08-27 11:20:06 51°22.42 2°45.57 37.937388 0.944395 5.390888 -0.680121
2003-08-27 11:21:18 51°22.17 2°45.55 38.36075 1.113167 6.432654 -0.612702
2003-08-27 11:22:34 51°21.89 2°45.53 38.316446 1.387878 8.164509 -0.646411
2003-08-27 11:23:50 51°21.62 2°45.51 37.549456 0.962176 5.499387 -0.680121
2003-08-27 11:25:12 51°21.33 2°45.49 37.652421 0.543598 2.984005 -0.646411
2003-08-27 11:26:22 51°21.1 2°45.65 38.674592 0.508327 2.777651 -0.612702
2003-08-27 11:27:30 51°20.89 2°45.9 38.394636 0.320737 1.703268 -0.646411
2003-08-27 11:28:44 51°20.68 2°46.21 38.340488 0.265311 1.39361 -0.646411
2003-08-27 11:29:46 51°20.52 2°46.49 35.396944 1.124576 6.501474 -0.680121
2003-08-27 11:31:10 51°20.3 2°46.87 39.101748 0.588794 3.245822 -0.646411
2003-08-27 11:32:42 51°20.05 2°47.29 39.244753 0.456165 2.473119 -0.646411
2003-08-27 11:33:52 51°19.87 2°47.6 37.701696 0.895974 5.091426 -0.646411
2003-08-27 11:35:34 51°19.61 2°48.05 38.79625 0.513544 2.806305 -0.646411
2003-08-27 11:36:46 51°19.43 2°48.37 37.958676 1.257449 7.335213 -0.646411
2003-08-27 11:37:58 51°19.24 2°48.7 38.328182 1.512605 8.962336 -0.680121
2003-08-27 11:39:18 51°19.05 2°49.07 39.670734 0.782969 4.407283 -0.646411
2003-08-27 11:40:34 51°18.87 2°49.44 39.667832 0.388383 2.085734 -0.646411
2003-08-27 11:41:50 51°18.69 2°49.82 41.04848 0.471916 2.566813 -0.646411
2003-08-27 11:43:02 51°18.52 2°50.16 39.977318 0.827599 4.675477 -0.680121
2003-08-27 11:44:22 51°18.33 2°50.54 38.773289 2.343894 14.421852 -0.646411
2003-08-27 11:45:34 51°18.15 2°50.88 38.451408 0.673165 3.749437 -0.680121
2003-08-27 11:46:36 51°18 2°51.17 38.836888 0.604767 3.343527 -0.680121
2003-08-27 11:47:54 51°17.81 2°51.54 38.245705 1.011658 5.802985 -0.680121
2003-08-27 11:49:22 51°17.59 2°51.93 39.050713 0.403084 2.170807 -0.680121
2003-08-27 11:50:34 51°17.38 2°52.17 38.93545 1.030386 5.919586 -0.646411
2003-08-27 11:52:02 51°17.1 2°52.44 38.64294 1.1139 6.43911 -0.680121
2003-08-27 11:53:26 51°16.84 2°52.71 38.318888 1.007996 5.781314 -0.612702
2003-08-27 11:54:42 51°16.59 2°52.94 39.360266 0.571466 3.147338 -0.680121
2003-08-27 11:55:56 51°16.36 2°53.16 38.230622 0.542346 2.976676 -0.680121
2003-08-27 11:57:02 51°16.15 2°53.37 37.746756 0.540154 2.963682 -0.680121
2003-08-27 11:58:10 51°15.93 2°53.58 38.068659 0.919294 5.235793 -0.680121
2003-08-27 11:59:46 51°15.63 2°53.87 38.54228 0.840979 4.757618 -0.680121
2003-08-27 12:01:02 51°15.39 2°54.09 37.591081 0.702412 3.922722 -0.680121
2003-08-27 12:02:16 51°15.17 2°54.34 37.92416 1.152736 6.678391 -0.646411
2003-08-27 12:03:36 51°14.93 2°54.59 38.644141 0.553931 3.043497 -0.680121
2003-08-27 12:04:54 51°14.69 2°54.79 37.882772 0.604872 3.342384 -0.680121
2003-08-27 12:06:14 51°14.45 2°54.98 37.629324 0.627215 3.474221 -0.680121